Huvudsida
METAR-TAF:

METAR-TAF

Flygplatser :

Indira Gandhis internationella flygplats

New Delhi, Indien

latitud: 28-34N, longitud: 077-07E, höjd: 220 m

Aktuellt väderrapport

Denna rapport gjordes för 21 minuter sedan, klockan 10:00 UTC
Vind 10 kt från väst
Temperatur 25°C
Fuktighet 39%
Tryck 1013 hPa
Sikt: 4000 m
torrdis

METAR: VIDP 161000Z 28010KT 4000 HZ NSC 25/10 Q1013 NOSIG

Tid: 15:51 (10:21 UTC)

Väderprognos

Denna rapport gjordes för 2 timmar och 21 minuter sedan, klockan 08:00 UTC
Prognos gäller från 16 kl. 09 UTC till 16 kl. 18 UTC
Vind 10 kt från väst/nordväst
Sikt: 3500 m
torrdis
Blir
från 16 kl. 15 UTC till 16 kl. 17 UTC
Sikt: 2500 m
rök

TAF: VIDP 160800Z 1609/1618 29010KT 3500 HZ NSC BECMG 1615/1617 2500 FU

Aktuella väderrapporter och prognoser från 4000 flygplatser (METAR- och TAF-rapporter).

De tillgängliga stationerna syns som gula och röda prickar på kartan.

För musen över prickarna för att se namnen på stationerna.

Klicka sedan för att få väderrapporter och prognoser.

För att ändra kartan: Klicka på de gröna knapparna med ett svart kors på för att zooma in; den gröna knappen med ett streck på för att zooma ut; eller på de gröna pilarna för angränsande kartor.


METAR-TAF: